Time;durP1;ratioP1;P1;durP2;ratioP2;P2;SDS_P1;SDS_P2;PMS_P1;PMS_P2;Temp;Humidity;BMP_temperature;BMP_pressure;BME280_temperature;BME280_humidity;BME280_pressure;Samples;Min_cycle;Max_cycle;Signal;HPM_P1;HPM_P2
2022/10/26 00:02:23;;;;;;;5.43;4.93;;;9.40;99.90;;;;;;5081086;28;20175;-73
2022/10/26 00:04:49;;;;;;;9.80;5.32;;;9.40;99.90;;;;;;5070510;28;20729;-74
2022/10/26 00:07:14;;;;;;;5.72;4.80;;;9.40;99.90;;;;;;5081233;28;20652;-73
2022/10/26 00:09:40;;;;;;;5.10;4.60;;;9.30;99.90;;;;;;5062340;28;20217;-73
2022/10/26 00:12:05;;;;;;;5.75;5.22;;;9.40;99.90;;;;;;5081230;28;20194;-72
2022/10/26 00:14:31;;;;;;;4.93;4.53;;;9.30;99.90;;;;;;5078683;28;20213;-72
2022/10/26 00:16:57;;;;;;;6.18;4.40;;;9.30;99.90;;;;;;5090340;28;20178;-72
2022/10/26 00:19:23;;;;;;;4.90;4.50;;;9.20;99.90;;;;;;5078889;28;20263;-73
2022/10/26 00:21:48;;;;;;;5.22;4.55;;;9.20;99.90;;;;;;5077956;28;20229;-72
2022/10/26 00:24:14;;;;;;;5.50;5.10;;;9.20;99.90;;;;;;5090546;28;20669;-73
2022/10/26 00:26:40;;;;;;;4.80;4.40;;;9.10;99.90;;;;;;5082930;28;20213;-73
2022/10/26 00:29:06;;;;;;;5.28;4.70;;;9.20;99.90;;;;;;5074875;28;20174;-73
2022/10/26 00:31:32;;;;;;;5.15;4.75;;;9.20;99.90;;;;;;5059598;28;20218;-73
2022/10/26 00:33:58;;;;;;;5.93;5.13;;;9.20;99.90;;;;;;5061910;28;20611;-73
2022/10/26 00:36:25;;;;;;;8.18;5.03;;;9.30;99.90;;;;;;5080548;28;20278;-72
2022/10/26 00:38:53;;;;;;;6.03;4.95;;;9.30;99.90;;;;;;5080385;28;20172;-74
2022/10/26 00:41:24;;;;;;;7.55;5.18;;;9.30;99.90;;;;;;5088523;28;20216;-72
2022/10/26 00:43:51;;;;;;;7.30;4.97;;;9.30;99.90;;;;;;5075509;28;20270;-72
2022/10/26 00:46:25;;;;;;;8.15;5.72;;;9.40;99.90;;;;;;5089090;28;20683;-74
2022/10/26 00:48:56;;;;;;;5.13;4.72;;;9.40;99.90;;;;;;5079286;28;20321;-73
2022/10/26 00:51:32;;;;;;;5.85;5.18;;;9.40;99.90;;;;;;5078468;28;20174;-73
2022/10/26 00:54:01;;;;;;;10.10;5.10;;;9.50;99.90;;;;;;5080405;28;20333;-72
2022/10/26 00:56:28;;;;;;;5.30;4.90;;;9.50;99.90;;;;;;5077992;28;20675;-73
2022/10/26 00:58:58;;;;;;;5.88;5.18;;;9.50;99.90;;;;;;5081328;28;20180;-73
2022/10/26 01:01:24;;;;;;;6.35;5.30;;;9.50;99.90;;;;;;5079309;28;20587;-73
2022/10/26 01:03:49;;;;;;;5.30;4.90;;;9.60;99.90;;;;;;5085488;28;20187;-73
2022/10/26 01:06:15;;;;;;;5.32;4.68;;;9.60;99.90;;;;;;5067964;28;20199;-73
2022/10/26 01:08:42;;;;;;;6.00;5.40;;;9.70;99.90;;;;;;5062253;28;20199;-72
2022/10/26 01:11:09;;;;;;;4.93;4.53;;;9.70;99.90;;;;;;5083166;28;20198;-72
2022/10/26 01:13:35;;;;;;;8.85;5.32;;;9.80;99.90;;;;;;5073614;28;20196;-73
2022/10/26 01:16:44;;;;;;;6.93;5.93;;;9.80;99.90;;;;;;5083930;28;20198;-72
2022/10/26 01:19:22;;;;;;;5.60;5.10;;;9.80;99.90;;;;;;5076512;28;20690;-76
2022/10/26 01:22:01;;;;;;;8.25;5.20;;;9.80;99.90;;;;;;5081280;28;20189;-73
2022/10/26 01:24:58;;;;;;;5.45;4.90;;;9.90;99.90;;;;;;5068895;28;20185;-72
2022/10/26 01:27:26;;;;;;;6.43;4.80;;;9.90;99.90;;;;;;5074408;28;20669;-72
2022/10/26 01:30:15;;;;;;;6.43;4.28;;;9.90;99.90;;;;;;5083756;28;20215;-73
2022/10/26 01:32:56;;;;;;;10.70;5.25;;;9.90;99.90;;;;;;5062234;28;20286;-73
2022/10/26 01:35:37;;;;;;;5.03;4.53;;;9.90;99.90;;;;;;5064737;28;20205;-73
2022/10/26 01:38:33;;;;;;;6.30;4.18;;;10.00;99.90;;;;;;5067082;28;20174;-73
2022/10/26 01:41:05;;;;;;;11.20;5.30;;;10.00;99.90;;;;;;5077362;28;20179;-73
2022/10/26 01:43:37;;;;;;;6.63;4.13;;;10.00;99.90;;;;;;5071781;28;20206;-73
2022/10/26 01:46:05;;;;;;;5.88;4.30;;;10.10;99.90;;;;;;5068297;28;20241;-73
2022/10/26 01:48:33;;;;;;;4.53;4.13;;;10.00;99.90;;;;;;5070983;28;20181;-74
2022/10/26 01:51:00;;;;;;;4.95;3.80;;;10.10;99.90;;;;;;5065767;28;20552;-74
2022/10/26 01:53:27;;;;;;;4.28;3.75;;;10.10;99.90;;;;;;5067476;28;20209;-73
2022/10/26 01:55:54;;;;;;;6.07;4.25;;;10.10;99.90;;;;;;5071350;28;20199;-73
2022/10/26 01:58:38;;;;;;;7.28;4.00;;;10.20;99.90;;;;;;5087246;28;20171;-72
2022/10/26 02:01:22;;;;;;;5.50;3.80;;;10.10;99.90;;;;;;5076749;28;20181;-72
2022/10/26 02:04:15;;;;;;;4.40;4.00;;;10.20;99.90;;;;;;5085762;28;20187;-73
2022/10/26 02:06:59;;;;;;;11.85;4.55;;;10.20;99.90;;;;;;5081814;28;20207;-73
2022/10/26 02:09:53;;;;;;;6.05;4.13;;;10.20;99.90;;;;;;5088774;28;20182;-72
2022/10/26 02:12:48;;;;;;;4.85;4.03;;;10.10;99.90;;;;;;5076203;28;20232;-73
2022/10/26 02:15:19;;;;;;;6.30;4.40;;;10.20;99.90;;;;;;5092000;28;20210;-73
2022/10/26 02:17:47;;;;;;;5.65;4.82;;;10.30;99.90;;;;;;5079561;28;20267;-73
2022/10/26 02:20:37;;;;;;;8.35;4.60;;;10.30;99.90;;;;;;5085726;28;20563;-73
2022/10/26 02:23:05;;;;;;;7.78;4.32;;;10.20;99.90;;;;;;5080400;28;20179;-73
2022/10/26 02:25:36;;;;;;;11.48;4.57;;;10.30;99.90;;;;;;5073407;28;20203;-72
2022/10/26 02:28:25;;;;;;;4.65;3.83;;;10.40;99.90;;;;;;5073503;28;20176;-73
2022/10/26 02:30:55;;;;;;;4.43;3.90;;;10.40;99.90;;;;;;5086136;28;20170;-73
2022/10/26 02:33:23;;;;;;;6.60;4.00;;;10.50;99.90;;;;;;5066329;28;20274;-73
2022/10/26 02:35:53;;;;;;;4.95;4.00;;;10.60;99.90;;;;;;5074091;28;20297;-74
2022/10/26 02:38:19;;;;;;;4.43;4.07;;;10.60;99.90;;;;;;5070293;28;20638;-72
2022/10/26 02:40:48;;;;;;;6.72;4.85;;;10.60;99.90;;;;;;5074661;28;20541;-73
2022/10/26 02:43:20;;;;;;;5.00;4.07;;;10.50;99.90;;;;;;5073377;28;20651;-74
2022/10/26 02:45:51;;;;;;;6.00;4.35;;;10.40;99.90;;;;;;5076005;28;20298;-74
2022/10/26 02:48:18;;;;;;;5.15;4.20;;;10.40;99.90;;;;;;5088591;28;20175;-73
2022/10/26 02:50:52;;;;;;;5.65;4.40;;;10.40;99.90;;;;;;5078711;28;20171;-72
2022/10/26 02:53:30;;;;;;;5.28;4.38;;;10.40;99.90;;;;;;5082377;28;20346;-72
2022/10/26 02:55:59;;;;;;;8.00;4.25;;;10.40;99.90;;;;;;5085526;28;20196;-72
2022/10/26 02:58:32;;;;;;;5.20;4.22;;;10.40;99.90;;;;;;5088159;28;20175;-74
2022/10/26 03:00:58;;;;;;;8.80;4.40;;;10.40;99.90;;;;;;5089405;28;20182;-73
2022/10/26 03:03:24;;;;;;;7.55;4.47;;;10.30;99.90;;;;;;5089340;28;20202;-74
2022/10/26 03:05:50;;;;;;;4.00;3.70;;;10.40;99.90;;;;;;5089723;28;20693;-73
2022/10/26 03:08:16;;;;;;;4.70;4.30;;;10.40;99.90;;;;;;5089205;28;20187;-73
2022/10/26 03:10:43;;;;;;;5.70;5.03;;;10.40;99.90;;;;;;5082906;28;20587;-73
2022/10/26 03:13:10;;;;;;;8.48;4.50;;;10.40;99.90;;;;;;5075335;28;20175;-73
2022/10/26 03:15:36;;;;;;;9.43;5.00;;;10.30;99.90;;;;;;5088865;28;20194;-72
2022/10/26 03:18:03;;;;;;;6.00;4.55;;;10.20;99.90;;;;;;5076458;28;20197;-73
2022/10/26 03:20:28;;;;;;;4.07;3.78;;;10.20;99.90;;;;;;5073473;28;20188;-72
2022/10/26 03:22:55;;;;;;;4.80;4.38;;;10.30;99.90;;;;;;5073848;28;20301;-73
2022/10/26 03:25:22;;;;;;;5.65;5.10;;;10.40;99.90;;;;;;5089036;28;20298;-73
2022/10/26 03:27:56;;;;;;;5.43;4.93;;;10.40;99.90;;;;;;5087235;28;20319;-73
2022/10/26 03:30:21;;;;;;;5.05;4.32;;;10.40;99.90;;;;;;5081696;28;20245;-76
2022/10/26 03:32:47;;;;;;;5.53;4.95;;;10.50;99.90;;;;;;5085072;28;20183;-72
2022/10/26 03:35:12;;;;;;;6.60;4.90;;;10.50;99.90;;;;;;5082217;28;20240;-73
2022/10/26 03:37:38;;;;;;;6.80;5.22;;;10.50;99.90;;;;;;5074155;28;20180;-73
2022/10/26 03:40:04;;;;;;;5.68;4.55;;;10.50;99.90;;;;;;5083485;28;20202;-73
2022/10/26 03:42:35;;;;;;;5.32;4.90;;;10.40;99.90;;;;;;5086093;28;20178;-73
2022/10/26 03:45:00;;;;;;;6.95;5.90;;;10.30;99.90;;;;;;5064661;28;20229;-72
2022/10/26 03:47:26;;;;;;;5.75;5.00;;;10.30;99.90;;;;;;5071901;28;20179;-73
2022/10/26 03:49:51;;;;;;;5.50;4.88;;;10.30;99.90;;;;;;5072130;28;20183;-73
2022/10/26 03:52:17;;;;;;;6.53;5.35;;;10.40;99.90;;;;;;5073957;28;20179;-73
2022/10/26 03:54:43;;;;;;;5.85;5.25;;;10.40;99.90;;;;;;5073125;28;20199;-73
2022/10/26 03:57:08;;;;;;;7.13;5.20;;;10.40;99.90;;;;;;5075671;28;20265;-73
2022/10/26 03:59:34;;;;;;;5.20;4.80;;;10.40;99.90;;;;;;5087212;28;20181;-72
2022/10/26 04:01:59;;;;;;;11.50;6.15;;;10.40;99.90;;;;;;5086027;28;20637;-73
2022/10/26 04:04:25;;;;;;;5.97;5.10;;;10.50;99.90;;;;;;5079126;28;20171;-73
2022/10/26 04:06:51;;;;;;;7.97;5.75;;;10.50;99.90;;;;;;5080811;28;20203;-73
2022/10/26 04:09:16;;;;;;;6.25;5.75;;;10.40;99.90;;;;;;5077796;28;20205;-73
2022/10/26 04:11:42;;;;;;;7.78;6.00;;;10.40;99.90;;;;;;5088738;28;20201;-73
2022/10/26 04:14:07;;;;;;;10.30;5.45;;;10.40;99.90;;;;;;5081441;28;20213;-73
2022/10/26 04:16:33;;;;;;;6.70;6.00;;;10.40;99.90;;;;;;5090171;28;20256;-73
2022/10/26 04:18:59;;;;;;;6.82;6.22;;;10.30;99.90;;;;;;5086290;28;20206;-73
2022/10/26 04:21:24;;;;;;;7.25;6.18;;;10.40;99.90;;;;;;5076298;28;20669;-73
2022/10/26 04:23:50;;;;;;;5.90;5.35;;;10.40;99.90;;;;;;5083745;28;20190;-74
2022/10/26 04:26:16;;;;;;;6.88;6.10;;;10.40;99.90;;;;;;5083068;28;20281;-73
2022/10/26 04:28:41;;;;;;;6.88;5.72;;;10.40;99.90;;;;;;5082584;28;20178;-73
2022/10/26 04:31:07;;;;;;;6.22;5.60;;;10.50;99.90;;;;;;5076605;28;20232;-73
2022/10/26 04:33:33;;;;;;;10.63;6.18;;;10.40;99.90;;;;;;5086269;28;20207;-72
2022/10/26 04:36:02;;;;;;;8.90;6.22;;;10.50;99.90;;;;;;5067262;28;20571;-73
2022/10/26 04:38:27;;;;;;;5.97;4.97;;;10.50;99.90;;;;;;5066869;28;20182;-73
2022/10/26 04:40:53;;;;;;;6.60;5.95;;;10.50;99.90;;;;;;5077378;28;20183;-73
2022/10/26 04:43:19;;;;;;;6.93;5.57;;;10.40;99.90;;;;;;5077230;28;20183;-73
2022/10/26 04:45:44;;;;;;;6.72;5.20;;;10.50;99.90;;;;;;5084980;28;20222;-73
2022/10/26 04:48:12;;;;;;;5.35;4.95;;;10.50;99.90;;;;;;5081268;28;20183;-73
2022/10/26 04:50:39;;;;;;;6.15;5.32;;;10.50;99.90;;;;;;5086389;28;20239;-73
2022/10/26 04:53:06;;;;;;;5.47;5.00;;;10.50;99.90;;;;;;5077987;28;20177;-73
2022/10/26 04:55:32;;;;;;;5.95;5.45;;;10.60;99.90;;;;;;5089333;28;20206;-73
2022/10/26 04:57:58;;;;;;;6.07;4.93;;;10.50;99.90;;;;;;5075749;28;20252;-73
2022/10/26 05:00:24;;;;;;;5.90;5.35;;;10.60;99.90;;;;;;5072531;28;20671;-74
2022/10/26 05:02:49;;;;;;;6.00;5.40;;;10.50;99.90;;;;;;5061914;28;20251;-74
2022/10/26 05:05:15;;;;;;;9.15;6.78;;;10.50;99.90;;;;;;5065141;28;20222;-74
2022/10/26 05:07:41;;;;;;;6.32;5.72;;;10.40;99.90;;;;;;5068475;28;20176;-73
2022/10/26 05:10:07;;;;;;;7.07;6.32;;;10.40;99.90;;;;;;5068269;28;20180;-73
2022/10/26 05:12:33;;;;;;;6.88;5.78;;;10.50;99.90;;;;;;5059334;28;20183;-74
2022/10/26 05:14:59;;;;;;;7.07;5.93;;;10.60;99.90;;;;;;5065337;28;20223;-74
2022/10/26 05:17:25;;;;;;;8.45;6.07;;;10.50;99.90;;;;;;5061117;28;20635;-74
2022/10/26 05:19:54;;;;;;;7.53;5.75;;;10.50;99.90;;;;;;5065287;28;20172;-73
2022/10/26 05:22:21;;;;;;;8.43;6.32;;;10.60;99.90;;;;;;5069203;28;20547;-74
2022/10/26 05:24:47;;;;;;;6.75;6.05;;;10.60;99.90;;;;;;5071592;28;20197;-72
2022/10/26 05:27:12;;;;;;;6.00;5.47;;;10.60;99.90;;;;;;5070723;28;20171;-73
2022/10/26 05:29:38;;;;;;;6.90;6.30;;;10.60;99.90;;;;;;5072223;28;20183;-75
2022/10/26 05:32:04;;;;;;;11.05;6.55;;;10.70;99.90;;;;;;5064282;28;20179;-74
2022/10/26 05:34:30;;;;;;;7.78;5.90;;;10.70;99.90;;;;;;5063834;28;20725;-74
2022/10/26 05:36:55;;;;;;;7.82;6.15;;;10.70;99.90;;;;;;5067368;28;20212;-73
2022/10/26 05:39:21;;;;;;;6.53;5.88;;;10.80;99.90;;;;;;5068977;28;20179;-74
2022/10/26 05:41:47;;;;;;;12.63;7.90;;;10.80;99.90;;;;;;5065056;28;20178;-74
2022/10/26 05:44:12;;;;;;;8.50;6.97;;;10.90;99.90;;;;;;5058858;28;20207;-74
2022/10/26 05:46:38;;;;;;;8.95;6.63;;;10.90;99.90;;;;;;5059698;28;20273;-76
2022/10/26 05:49:04;;;;;;;8.95;6.45;;;11.00;99.90;;;;;;5072249;28;20185;-74
2022/10/26 05:51:32;;;;;;;8.20;7.00;;;11.00;99.90;;;;;;5072506;28;20174;-75
2022/10/26 05:53:58;;;;;;;11.05;7.00;;;10.90;99.90;;;;;;5077724;28;20233;-74
2022/10/26 05:56:35;;;;;;;11.00;7.10;;;10.90;99.90;;;;;;5074297;28;20229;-74
2022/10/26 05:59:01;;;;;;;7.57;6.53;;;10.80;99.90;;;;;;5060595;28;20212;-74
2022/10/26 06:01:38;;;;;;;8.02;7.22;;;10.70;99.90;;;;;;5059060;28;20184;-74
2022/10/26 06:04:22;;;;;;;9.32;6.90;;;10.80;99.90;;;;;;5080065;28;20249;-75
2022/10/26 06:06:55;;;;;;;8.73;6.30;;;10.80;99.90;;;;;;5076850;28;20203;-74
2022/10/26 06:09:21;;;;;;;8.13;6.78;;;10.90;99.90;;;;;;5072617;28;20191;-74
2022/10/26 06:11:47;;;;;;;6.97;6.30;;;10.90;99.90;;;;;;5075274;28;20183;-74
2022/10/26 06:14:14;;;;;;;8.27;7.00;;;10.90;99.90;;;;;;5082243;28;20199;-75
2022/10/26 06:17:00;;;;;;;7.90;6.88;;;10.80;99.90;;;;;;5059863;28;20197;-75
2022/10/26 06:19:46;;;;;;;8.45;6.47;;;10.90;99.90;;;;;;5068590;28;20184;-74
2022/10/26 06:22:33;;;;;;;8.00;7.07;;;10.90;99.90;;;;;;5081759;28;20191;-74
2022/10/26 06:25:24;;;;;;;7.63;6.85;;;10.90;99.90;;;;;;5073706;28;20214;-73
2022/10/26 06:28:14;;;;;;;7.60;6.78;;;11.00;99.90;;;;;;5070717;28;20186;-75
2022/10/26 06:30:40;;;;;;;8.70;6.80;;;11.10;99.90;;;;;;5066118;28;20548;-75
2022/10/26 06:33:09;;;;;;;7.35;6.72;;;11.20;99.90;;;;;;5069943;28;20258;-74
2022/10/26 06:35:41;;;;;;;7.55;6.95;;;11.20;99.90;;;;;;5078724;28;20206;-75
2022/10/26 06:38:12;;;;;;;7.95;6.40;;;11.30;99.90;;;;;;5071865;28;20174;-75
2022/10/26 06:40:41;;;;;;;8.07;7.00;;;11.30;99.90;;;;;;5073294;28;20205;-73
2022/10/26 06:43:25;;;;;;;7.43;6.63;;;11.30;99.90;;;;;;5080690;28;20179;-74
2022/10/26 06:46:32;;;;;;;10.30;6.50;;;11.30;99.90;;;;;;5064197;28;20309;-74
2022/10/26 06:49:19;;;;;;;8.20;6.97;;;11.30;99.90;;;;;;5075029;28;20281;-73
2022/10/26 06:51:49;;;;;;;7.57;6.13;;;11.40;99.90;;;;;;5073894;28;20209;-74
2022/10/26 06:54:22;;;;;;;8.10;6.70;;;11.50;99.90;;;;;;5070579;28;20249;-74
2022/10/26 06:56:47;;;;;;;7.45;6.75;;;11.60;99.90;;;;;;5079899;28;20214;-74
2022/10/26 06:59:28;;;;;;;9.52;7.35;;;11.60;99.90;;;;;;5088579;28;20174;-74
2022/10/26 07:01:54;;;;;;;7.53;6.82;;;11.70;99.90;;;;;;5075503;28;20168;-78
2022/10/26 07:04:20;;;;;;;9.60;7.05;;;11.70;99.90;;;;;;5070436;28;20548;-77
2022/10/26 07:06:46;;;;;;;8.85;7.95;;;11.70;99.90;;;;;;5080962;28;20720;-77
2022/10/26 07:09:11;;;;;;;8.15;6.95;;;11.80;99.90;;;;;;5072953;28;20179;-77
2022/10/26 07:11:37;;;;;;;9.52;7.72;;;11.80;99.90;;;;;;5079007;28;20590;-78
2022/10/26 07:14:03;;;;;;;8.20;6.95;;;11.80;99.90;;;;;;5073606;28;20187;-78
2022/10/26 07:16:28;;;;;;;8.30;7.32;;;11.90;99.90;;;;;;5060374;28;20284;-78
2022/10/26 07:18:54;;;;;;;8.00;7.22;;;11.80;99.90;;;;;;5066624;28;20659;-77
2022/10/26 07:21:19;;;;;;;8.25;7.30;;;11.90;99.90;;;;;;5066561;28;20192;-78
2022/10/26 07:23:45;;;;;;;10.13;7.55;;;11.80;99.90;;;;;;5062582;28;20553;-75
2022/10/26 07:26:11;;;;;;;9.35;7.32;;;11.80;99.90;;;;;;5078428;28;20205;-74
2022/10/26 07:28:36;;;;;;;8.68;7.15;;;11.90;99.90;;;;;;5081647;28;20628;-74
2022/10/26 07:31:04;;;;;;;8.18;7.38;;;11.90;99.90;;;;;;5069285;28;20610;-77
2022/10/26 07:33:30;;;;;;;10.85;7.25;;;11.90;99.90;;;;;;5064567;28;20554;-74
2022/10/26 07:35:58;;;;;;;7.50;6.80;;;11.90;99.90;;;;;;5070816;28;20206;-74
2022/10/26 07:38:24;;;;;;;8.35;7.57;;;12.00;99.90;;;;;;5064667;28;20190;-75
2022/10/26 07:40:49;;;;;;;9.55;8.20;;;12.10;99.90;;;;;;5078004;28;20183;-72
2022/10/26 07:43:15;;;;;;;8.60;7.80;;;12.10;99.90;;;;;;5081796;28;20771;-73
2022/10/26 07:45:40;;;;;;;8.63;7.93;;;12.10;99.90;;;;;;5081691;28;20650;-76
2022/10/26 07:48:06;;;;;;;9.80;8.30;;;12.20;99.90;;;;;;5071560;28;20271;-74
2022/10/26 07:50:32;;;;;;;8.55;7.72;;;12.30;99.90;;;;;;5068740;28;20187;-74
2022/10/26 07:52:58;;;;;;;8.98;7.97;;;12.40;99.90;;;;;;5078095;28;20271;-73
2022/10/26 07:55:24;;;;;;;7.70;7.00;;;12.50;99.90;;;;;;5066099;28;20738;-74
2022/10/26 07:57:51;;;;;;;8.20;7.45;;;12.80;99.90;;;;;;5072901;28;20223;-75
2022/10/26 08:00:16;;;;;;;9.45;7.72;;;13.00;99.90;;;;;;5059694;28;20200;-75
2022/10/26 08:02:42;;;;;;;7.57;6.97;;;13.20;99.90;;;;;;5061945;28;20630;-75
2022/10/26 08:05:08;;;;;;;7.45;6.85;;;13.50;99.90;;;;;;5067312;28;20745;-75
2022/10/26 08:07:40;;;;;;;7.88;7.07;;;13.60;99.90;;;;;;5069997;28;20192;-74
2022/10/26 08:10:06;;;;;;;10.70;5.85;;;13.70;99.90;;;;;;5082193;28;20174;-74
2022/10/26 08:12:31;;;;;;;8.07;6.72;;;13.80;99.90;;;;;;5075081;28;20218;-74
2022/10/26 08:14:57;;;;;;;8.00;6.15;;;13.80;99.90;;;;;;5080455;28;20612;-75
2022/10/26 08:17:22;;;;;;;8.18;6.25;;;13.90;99.90;;;;;;5076229;28;20178;-74
2022/10/26 08:19:48;;;;;;;6.75;6.05;;;14.00;99.90;;;;;;5085095;28;20695;-75
2022/10/26 08:22:14;;;;;;;6.88;5.78;;;14.10;99.90;;;;;;5079714;28;20187;-74
2022/10/26 08:24:39;;;;;;;7.68;6.13;;;14.10;99.90;;;;;;5069016;28;20179;-74
2022/10/26 08:27:05;;;;;;;6.78;6.07;;;14.20;99.90;;;;;;5080532;28;20544;-74
2022/10/26 08:29:31;;;;;;;7.03;6.32;;;14.30;99.90;;;;;;5075648;28;20187;-74
2022/10/26 08:31:56;;;;;;;5.78;5.28;;;14.50;99.90;;;;;;5084186;28;20529;-76
2022/10/26 08:34:22;;;;;;;6.93;5.80;;;14.70;99.90;;;;;;5069696;28;20203;-74
2022/10/26 08:36:49;;;;;;;6.38;5.78;;;15.00;99.90;;;;;;5071885;28;20199;-74
2022/10/26 08:39:15;;;;;;;6.72;6.13;;;15.10;99.90;;;;;;5075341;28;20193;-75
2022/10/26 08:41:46;;;;;;;6.80;6.25;;;15.00;99.90;;;;;;5067307;28;20250;-74
2022/10/26 08:44:20;;;;;;;7.47;6.30;;;15.10;99.90;;;;;;5081733;28;20646;-76
2022/10/26 08:46:52;;;;;;;6.90;6.18;;;15.20;99.90;;;;;;5070248;28;20210;-75
2022/10/26 08:49:50;;;;;;;6.40;5.90;;;15.20;99.90;;;;;;5071247;28;20188;-75
2022/10/26 08:52:29;;;;;;;6.68;6.05;;;15.10;99.90;;;;;;5073765;28;20274;-74
2022/10/26 08:54:57;;;;;;;7.00;5.93;;;15.20;99.90;;;;;;5074962;28;20770;-74
2022/10/26 08:57:32;;;;;;;6.97;6.13;;;15.20;99.90;;;;;;5083053;28;20196;-74
2022/10/26 09:00:14;;;;;;;5.97;5.38;;;15.10;99.90;;;;;;5076043;28;20194;-75
2022/10/26 09:02:39;;;;;;;7.28;6.05;;;15.40;99.90;;;;;;5071216;28;20207;-74
2022/10/26 09:05:15;;;;;;;6.60;5.50;;;15.60;99.90;;;;;;5076804;28;20684;-74
2022/10/26 09:08:20;;;;;;;7.60;6.05;;;15.80;99.90;;;;;;5062896;28;20179;-74
2022/10/26 09:11:01;;;;;;;7.00;6.30;;;16.00;99.90;;;;;;5048512;28;20192;-73
2022/10/26 09:13:48;;;;;;;7.60;5.55;;;16.00;99.90;;;;;;5055925;28;20176;-73
2022/10/26 09:16:36;;;;;;;6.43;5.75;;;15.90;99.90;;;;;;5049628;28;20249;-74
2022/10/26 09:19:21;;;;;;;7.78;5.85;;;15.80;99.90;;;;;;5068112;28;20698;-73
2022/10/26 09:22:06;;;;;;;6.90;6.20;;;15.70;99.90;;;;;;5065255;28;20211;-73
2022/10/26 09:24:37;;;;;;;5.97;5.38;;;15.70;99.90;;;;;;5074620;28;20265;-73
2022/10/26 09:27:20;;;;;;;7.88;5.60;;;15.60;99.90;;;;;;5074685;28;20189;-73
2022/10/26 09:29:46;;;;;;;6.43;5.90;;;15.60;99.90;;;;;;5056339;28;20245;-74
2022/10/26 09:32:20;;;;;;;6.88;5.85;;;15.60;99.90;;;;;;5078454;28;20192;-73
2022/10/26 09:34:52;;;;;;;5.95;5.40;;;15.40;99.90;;;;;;5074166;28;20232;-73
2022/10/26 09:37:27;;;;;;;9.52;6.80;;;15.20;99.90;;;;;;5075531;28;20170;-73
2022/10/26 09:40:04;;;;;;;7.38;5.82;;;15.00;99.90;;;;;;5075868;28;20185;-73
2022/10/26 09:42:30;;;;;;;7.50;6.22;;;14.90;99.90;;;;;;5084971;28;20204;-73
2022/10/26 09:45:28;;;;;;;7.13;6.53;;;14.80;99.90;;;;;;5073481;28;20289;-74
2022/10/26 09:47:59;;;;;;;8.98;6.30;;;14.80;99.90;;;;;;5073923;28;20190;-74
2022/10/26 09:50:34;;;;;;;7.00;6.40;;;15.00;99.90;;;;;;5060374;28;20254;-75
2022/10/26 09:53:00;;;;;;;6.70;5.57;;;15.20;99.90;;;;;;5066627;28;20179;-74
2022/10/26 09:55:26;;;;;;;6.00;5.45;;;15.40;99.90;;;;;;5078322;28;20203;-75
2022/10/26 09:57:56;;;;;;;7.95;5.75;;;15.80;99.90;;;;;;5085075;28;20296;-74
2022/10/26 10:00:24;;;;;;;7.45;6.32;;;16.40;99.90;;;;;;5068402;28;20207;-76
2022/10/26 10:02:55;;;;;;;8.38;6.10;;;17.00;99.90;;;;;;5067351;28;20240;-74
2022/10/26 10:05:25;;;;;;;6.25;4.93;;;17.40;99.90;;;;;;5073750;28;20237;-74
2022/10/26 10:07:51;;;;;;;6.03;4.97;;;17.40;99.90;;;;;;5061542;28;20183;-75
2022/10/26 10:10:21;;;;;;;5.55;4.95;;;17.40;99.90;;;;;;5058485;28;20194;-75
2022/10/26 10:12:51;;;;;;;7.93;5.10;;;17.50;99.90;;;;;;5073580;28;20183;-75
2022/10/26 10:15:26;;;;;;;6.55;5.35;;;17.50;99.90;;;;;;5061648;28;20231;-75
2022/10/26 10:17:56;;;;;;;5.00;4.43;;;17.80;99.90;;;;;;5067868;28;20181;-76
2022/10/26 10:20:31;;;;;;;5.93;4.40;;;18.20;99.90;;;;;;5069682;28;20233;-75
2022/10/26 10:22:59;;;;;;;6.75;4.10;;;18.60;99.90;;;;;;5082725;28;20175;-76
2022/10/26 10:25:38;;;;;;;4.85;4.45;;;19.00;99.90;;;;;;5073907;28;20206;-76
2022/10/26 10:28:21;;;;;;;4.80;4.30;;;19.20;99.90;;;;;;5067909;28;20183;-76
2022/10/26 10:31:20;;;;;;;6.22;4.60;;;19.50;99.90;;;;;;5087113;28;20171;-76
2022/10/26 10:33:46;;;;;;;4.72;4.32;;;19.80;99.90;;;;;;5073788;28;20227;-74
2022/10/26 10:36:22;;;;;;;4.85;4.30;;;19.90;99.90;;;;;;5080337;28;20198;-74
2022/10/26 10:38:50;;;;;;;4.60;4.18;;;20.00;99.90;;;;;;5063016;28;20175;-74
2022/10/26 10:41:26;;;;;;;6.30;4.30;;;19.90;99.90;;;;;;5073504;28;20274;-74
2022/10/26 10:43:57;;;;;;;4.63;4.13;;;19.70;99.90;;;;;;5072705;28;20179;-76
2022/10/26 10:46:25;;;;;;;4.57;4.13;;;19.80;99.90;;;;;;5072540;28;20268;-74
2022/10/26 10:49:02;;;;;;;4.53;4.15;;;19.90;99.90;;;;;;5076516;28;20184;-73
2022/10/26 10:51:30;;;;;;;4.97;4.47;;;19.60;99.90;;;;;;5077554;28;20190;-74
2022/10/26 10:53:56;;;;;;;6.13;4.10;;;19.60;99.90;;;;;;5065252;28;20600;-73
2022/10/26 10:56:46;;;;;;;4.07;3.65;;;19.60;99.90;;;;;;5088075;28;20273;-74
2022/10/26 10:59:29;;;;;;;5.55;4.35;;;19.30;99.90;;;;;;5072014;28;20181;-74
2022/10/26 11:02:16;;;;;;;5.45;4.25;;;19.10;99.90;;;;;;5079247;28;20206;-76
2022/10/26 11:05:02;;;;;;;5.32;4.45;;;19.00;99.90;;;;;;5087167;28;20235;-77
2022/10/26 11:07:31;;;;;;;4.82;4.45;;;18.90;99.90;;;;;;5064174;28;20188;-77
2022/10/26 11:10:01;;;;;;;6.00;3.75;;;19.00;99.90;;;;;;5074290;28;20282;-75
2022/10/26 11:12:33;;;;;;;5.15;4.18;;;19.10;99.90;;;;;;5075950;28;20180;-76
2022/10/26 11:15:06;;;;;;;7.97;4.93;;;19.10;99.90;;;;;;5082883;28;20215;-76
2022/10/26 11:17:40;;;;;;;4.43;4.03;;;19.40;99.90;;;;;;5060677;28;20187;-76
2022/10/26 11:20:14;;;;;;;8.40;4.22;;;19.40;99.90;;;;;;5067322;28;20185;-77
2022/10/26 11:23:19;;;;;;;6.28;4.45;;;19.30;99.90;;;;;;5075011;28;20214;-79
2022/10/26 11:25:55;;;;;;;4.47;3.70;;;19.50;99.90;;;;;;5054646;28;20260;-77
2022/10/26 11:28:54;;;;;;;5.50;4.60;;;19.20;99.90;;;;;;5081434;28;20273;-72
2022/10/26 11:31:26;;;;;;;4.07;3.78;;;19.10;99.90;;;;;;5059463;28;20187;-74
2022/10/26 11:34:15;;;;;;;8.85;4.32;;;19.30;99.90;;;;;;5070832;28;20250;-74
2022/10/26 11:36:45;;;;;;;4.65;4.25;;;19.30;99.90;;;;;;5069960;28;20282;-73
2022/10/26 11:39:24;;;;;;;5.18;4.63;;;19.60;99.90;;;;;;5063750;28;20653;-73
2022/10/26 11:42:25;;;;;;;4.10;3.80;;;19.90;99.90;;;;;;5059321;28;20230;-73
2022/10/26 11:45:30;;;;;;;5.00;3.88;;;20.10;99.90;;;;;;5062078;28;20218;-73
2022/10/26 11:48:06;;;;;;;4.10;3.80;;;19.80;99.90;;;;;;5056767;28;20183;-74
2022/10/26 11:50:40;;;;;;;5.43;4.32;;;19.60;99.90;;;;;;5061164;28;20210;-73
2022/10/26 11:53:15;;;;;;;4.63;4.20;;;19.30;99.90;;;;;;5058734;28;20192;-73
2022/10/26 11:55:45;;;;;;;6.30;3.60;;;19.10;99.90;;;;;;5061420;28;20918;-74
2022/10/26 11:58:11;;;;;;;5.50;4.78;;;18.60;99.90;;;;;;5067337;28;20199;-75
2022/10/26 12:00:48;;;;;;;6.78;4.40;;;18.00;99.90;;;;;;5056250;28;20179;-74
2022/10/26 12:03:24;;;;;;;6.18;4.60;;;17.40;99.90;;;;;;5057320;28;20178;-74
2022/10/26 12:05:50;;;;;;;5.40;4.07;;;17.10;99.90;;;;;;5058111;28;20191;-74
2022/10/26 12:08:23;;;;;;;5.38;4.10;;;17.20;99.90;;;;;;5066638;28;20187;-74
2022/10/26 12:10:57;;;;;;;4.60;4.10;;;17.40;99.90;;;;;;5057096;28;20187;-74
2022/10/26 12:13:46;;;;;;;4.25;3.95;;;17.60;99.90;;;;;;5061448;28;20182;-74
2022/10/26 12:16:38;;;;;;;4.70;4.30;;;17.90;99.90;;;;;;5053534;28;20196;-74
2022/10/26 12:19:25;;;;;;;4.45;4.05;;;18.00;99.90;;;;;;5055376;28;20665;-75
2022/10/26 12:21:51;;;;;;;3.97;3.55;;;18.30;99.90;;;;;;5068332;28;20175;-74
2022/10/26 12:24:22;;;;;;;4.10;3.80;;;18.60;99.90;;;;;;5063553;28;20265;-74
2022/10/26 12:27:03;;;;;;;4.50;4.03;;;18.70;99.90;;;;;;5065098;28;20229;-74
2022/10/26 12:29:35;;;;;;;7.82;3.85;;;19.00;99.90;;;;;;5059420;28;20201;-74
2022/10/26 12:32:02;;;;;;;5.93;3.53;;;19.20;99.90;;;;;;5066000;28;20187;-75
2022/10/26 12:34:31;;;;;;;4.13;3.72;;;19.30;99.90;;;;;;5060821;28;20210;-74
2022/10/26 12:36:56;;;;;;;4.43;4.03;;;19.30;99.90;;;;;;5062193;28;20232;-73
2022/10/26 12:39:29;;;;;;;5.50;3.45;;;19.20;99.90;;;;;;5070694;28;20266;-73
2022/10/26 12:42:08;;;;;;;3.58;3.28;;;19.20;99.90;;;;;;5057548;28;20172;-73
2022/10/26 12:44:34;;;;;;;3.50;3.20;;;19.10;99.90;;;;;;5058303;28;20202;-74
2022/10/26 12:47:00;;;;;;;2.65;2.45;;;19.10;99.90;;;;;;5066220;28;20260;-73
2022/10/26 12:49:57;;;;;;;3.10;2.90;;;19.00;99.90;;;;;;5059884;28;20180;-73
2022/10/26 12:52:31;;;;;;;3.60;3.03;;;18.70;99.90;;;;;;5063578;28;20179;-73
2022/10/26 12:55:10;;;;;;;4.07;3.00;;;18.70;99.90;;;;;;5068810;28;20213;-73
2022/10/26 12:57:54;;;;;;;3.10;2.75;;;18.70;99.90;;;;;;5070550;28;20178;-74
2022/10/26 13:00:27;;;;;;;4.68;2.92;;;18.90;99.90;;;;;;5064466;28;20263;-74
2022/10/26 13:03:13;;;;;;;6.00;3.25;;;19.10;99.90;;;;;;5070622;28;20549;-74
2022/10/26 13:06:16;;;;;;;2.60;2.40;;;19.50;99.90;;;;;;5059539;28;20771;-74
2022/10/26 13:09:07;;;;;;;5.47;3.15;;;19.90;99.90;;;;;;5061453;28;20189;-74
2022/10/26 13:11:42;;;;;;;2.58;2.38;;;19.90;99.90;;;;;;5055165;28;20192;-74
2022/10/26 13:14:21;;;;;;;3.95;2.67;;;19.90;99.90;;;;;;5055796;28;20187;-73